sensor_id;sensor_type;location;lat;lon;timestamp;pressure;altitude;pressure_sealevel;temperature;humidity
78562;BME280;68963;52.138;5.446;2023-05-20T00:01:06;102685.03;;;11.90;73.91
78562;BME280;68963;52.138;5.446;2023-05-20T00:03:32;102683.81;;;11.84;74.02
78562;BME280;68963;52.138;5.446;2023-05-20T00:05:59;102686.59;;;11.82;74.23
78562;BME280;68963;52.138;5.446;2023-05-20T00:08:26;102680.91;;;11.77;74.66
78562;BME280;68963;52.138;5.446;2023-05-20T00:10:52;102683.31;;;11.71;74.87
78562;BME280;68963;52.138;5.446;2023-05-20T00:13:19;102679.19;;;11.68;74.74
78562;BME280;68963;52.138;5.446;2023-05-20T00:15:45;102688.22;;;11.66;74.98
78562;BME280;68963;52.138;5.446;2023-05-20T00:18:12;102681.28;;;11.65;75.13
78562;BME280;68963;52.138;5.446;2023-05-20T00:20:39;102683.69;;;11.58;75.41
78562;BME280;68963;52.138;5.446;2023-05-20T00:23:05;102689.72;;;11.50;75.62
78562;BME280;68963;52.138;5.446;2023-05-20T00:25:32;102684.59;;;11.49;75.90
78562;BME280;68963;52.138;5.446;2023-05-20T00:27:59;102689.47;;;11.44;76.02
78562;BME280;68963;52.138;5.446;2023-05-20T00:30:26;102690.56;;;11.41;76.34
78562;BME280;68963;52.138;5.446;2023-05-20T00:32:52;102690.75;;;11.40;76.16
78562;BME280;68963;52.138;5.446;2023-05-20T00:35:19;102689.09;;;11.39;76.63
78562;BME280;68963;52.138;5.446;2023-05-20T00:37:45;102678.66;;;11.37;76.46
78562;BME280;68963;52.138;5.446;2023-05-20T00:40:12;102678.81;;;11.35;76.49
78562;BME280;68963;52.138;5.446;2023-05-20T00:42:41;102683.72;;;11.30;76.99
78562;BME280;68963;52.138;5.446;2023-05-20T00:45:07;102674.41;;;11.26;77.41
78562;BME280;68963;52.138;5.446;2023-05-20T00:47:34;102679.16;;;11.23;77.26
78562;BME280;68963;52.138;5.446;2023-05-20T00:50:05;102679.16;;;11.23;78.08
78562;BME280;68963;52.138;5.446;2023-05-20T00:52:32;102674.88;;;11.22;77.96
78562;BME280;68963;52.138;5.446;2023-05-20T00:54:59;102668.47;;;11.24;77.80
78562;BME280;68963;52.138;5.446;2023-05-20T00:57:26;102670.13;;;11.25;77.88
78562;BME280;68963;52.138;5.446;2023-05-20T00:59:53;102670.13;;;11.25;77.96
78562;BME280;68963;52.138;5.446;2023-05-20T01:02:20;102662.50;;;11.22;78.12
78562;BME280;68963;52.138;5.446;2023-05-20T01:04:47;102662.38;;;11.24;77.93
78562;BME280;68963;52.138;5.446;2023-05-20T01:07:15;102660.03;;;11.21;78.37
78562;BME280;68963;52.138;5.446;2023-05-20T01:09:43;102663.78;;;11.18;78.15
78562;BME280;68963;52.138;5.446;2023-05-20T01:12:12;102663.78;;;11.18;78.24
78562;BME280;68963;52.138;5.446;2023-05-20T01:14:49;102664.75;;;11.17;77.95
78562;BME280;68963;52.138;5.446;2023-05-20T01:17:18;102658.78;;;11.15;78.48
78562;BME280;68963;52.138;5.446;2023-05-20T01:19:46;102649.66;;;11.09;78.86
78562;BME280;68963;52.138;5.446;2023-05-20T01:22:14;102646.22;;;11.09;78.88
78562;BME280;68963;52.138;5.446;2023-05-20T01:24:43;102649.97;;;11.06;79.16
78562;BME280;68963;52.138;5.446;2023-05-20T01:27:11;102653.03;;;11.02;79.42
78562;BME280;68963;52.138;5.446;2023-05-20T01:29:40;102643.59;;;10.99;78.98
78562;BME280;68963;52.138;5.446;2023-05-20T01:32:10;102641.94;;;10.98;78.41
78562;BME280;68963;52.138;5.446;2023-05-20T01:34:38;102642.94;;;10.97;79.28
78562;BME280;68963;52.138;5.446;2023-05-20T01:37:07;102636.97;;;10.95;79.35
78562;BME280;68963;52.138;5.446;2023-05-20T01:39:35;102640.16;;;10.89;79.89
78562;BME280;68963;52.138;5.446;2023-05-20T01:42:04;102636.16;;;10.85;80.01
78562;BME280;68963;52.138;5.446;2023-05-20T01:44:32;102633.00;;;10.81;80.33
78562;BME280;68963;52.138;5.446;2023-05-20T01:46:59;102631.50;;;10.79;80.43
78562;BME280;68963;52.138;5.446;2023-05-20T01:49:27;102630.97;;;10.75;80.93
78562;BME280;68963;52.138;5.446;2023-05-20T01:51:54;102633.59;;;10.75;80.71
78562;BME280;68963;52.138;5.446;2023-05-20T01:54:21;102626.25;;;10.69;81.15
78562;BME280;68963;52.138;5.446;2023-05-20T01:56:48;102631.81;;;10.66;81.30
78562;BME280;68963;52.138;5.446;2023-05-20T01:59:15;102639.00;;;10.64;81.36
78562;BME280;68963;52.138;5.446;2023-05-20T02:01:42;102632.09;;;10.63;81.47
78562;BME280;68963;52.138;5.446;2023-05-20T02:04:08;102630.59;;;10.60;81.26
78562;BME280;68963;52.138;5.446;2023-05-20T02:06:35;102634.06;;;10.61;81.79
78562;BME280;68963;52.138;5.446;2023-05-20T02:09:02;102626.97;;;10.61;81.71
78562;BME280;68963;52.138;5.446;2023-05-20T02:11:28;102625.31;;;10.60;81.51
78562;BME280;68963;52.138;5.446;2023-05-20T02:13:55;102632.38;;;10.60;81.31
78562;BME280;68963;52.138;5.446;2023-05-20T02:16:22;102628.09;;;10.59;81.48
78562;BME280;68963;52.138;5.446;2023-05-20T02:18:49;102625.72;;;10.56;81.54
78562;BME280;68963;52.138;5.446;2023-05-20T02:21:18;102618.97;;;10.53;81.87
78562;BME280;68963;52.138;5.446;2023-05-20T02:23:45;102630.34;;;10.54;82.19
78562;BME280;68963;52.138;5.446;2023-05-20T02:26:11;102628.66;;;10.53;82.09
78562;BME280;68963;52.138;5.446;2023-05-20T02:28:38;102634.22;;;10.50;82.43
78562;BME280;68963;52.138;5.446;2023-05-20T02:31:08;102627.03;;;10.42;82.67
78562;BME280;68963;52.138;5.446;2023-05-20T02:33:35;102629.53;;;10.34;82.96
78562;BME280;68963;52.138;5.446;2023-05-20T02:36:02;102632.16;;;10.34;82.86
78562;BME280;68963;52.138;5.446;2023-05-20T02:38:29;102625.53;;;10.30;83.03
78562;BME280;68963;52.138;5.446;2023-05-20T02:40:57;102622.75;;;10.31;83.50
78562;BME280;68963;52.138;5.446;2023-05-20T02:43:25;102609.88;;;10.28;83.63
78562;BME280;68963;52.138;5.446;2023-05-20T02:45:51;102616.78;;;10.29;83.28
78562;BME280;68963;52.138;5.446;2023-05-20T02:48:18;102615.53;;;10.24;83.71
78562;BME280;68963;52.138;5.446;2023-05-20T02:50:46;102608.47;;;10.24;83.97
78562;BME280;68963;52.138;5.446;2023-05-20T02:53:12;102606.78;;;10.23;83.99
78562;BME280;68963;52.138;5.446;2023-05-20T02:55:39;102610.69;;;10.19;84.08
78562;BME280;68963;52.138;5.446;2023-05-20T02:58:06;102605.84;;;10.14;84.20
78562;BME280;68963;52.138;5.446;2023-05-20T03:00:33;102606.81;;;10.13;84.38
78562;BME280;68963;52.138;5.446;2023-05-20T03:03:06;102612.38;;;10.10;84.33
78562;BME280;68963;52.138;5.446;2023-05-20T03:05:34;102603.75;;;10.08;84.90
78562;BME280;68963;52.138;5.446;2023-05-20T03:08:08;102612.38;;;10.10;84.74
78562;BME280;68963;52.138;5.446;2023-05-20T03:10:38;102608.75;;;10.11;84.64
78562;BME280;68963;52.138;5.446;2023-05-20T03:13:06;102609.19;;;10.07;85.02
78562;BME280;68963;52.138;5.446;2023-05-20T03:15:34;102614.06;;;10.02;85.56
78562;BME280;68963;52.138;5.446;2023-05-20T03:18:02;102615.69;;;10.03;85.32
78562;BME280;68963;52.138;5.446;2023-05-20T03:20:29;102618.34;;;10.03;85.52
78562;BME280;68963;52.138;5.446;2023-05-20T03:22:57;102618.19;;;10.04;85.57
78562;BME280;68963;52.138;5.446;2023-05-20T03:25:24;102622.19;;;10.08;85.94
78562;BME280;68963;52.138;5.446;2023-05-20T03:27:51;102618.59;;;10.09;85.70
78562;BME280;68963;52.138;5.446;2023-05-20T03:30:18;102621.38;;;10.08;85.81
78562;BME280;68963;52.138;5.446;2023-05-20T03:32:44;102621.66;;;10.05;85.63
78562;BME280;68963;52.138;5.446;2023-05-20T03:35:11;102620.97;;;10.03;86.09
78562;BME280;68963;52.138;5.446;2023-05-20T03:37:38;102630.78;;;10.01;86.46
78562;BME280;68963;52.138;5.446;2023-05-20T03:40:06;102617.63;;;10.01;86.19
78562;BME280;68963;52.138;5.446;2023-05-20T03:42:33;102620.25;;;10.01;86.58
78562;BME280;68963;52.138;5.446;2023-05-20T03:45:00;102617.91;;;9.98;86.60
78562;BME280;68963;52.138;5.446;2023-05-20T03:47:27;102620.69;;;9.96;87.23
78562;BME280;68963;52.138;5.446;2023-05-20T03:49:54;102622.09;;;9.90;87.20
78562;BME280;68963;52.138;5.446;2023-05-20T03:52:20;102610.88;;;9.88;87.42
78562;BME280;68963;52.138;5.446;2023-05-20T03:54:47;102618.34;;;9.93;87.81
78562;BME280;68963;52.138;5.446;2023-05-20T03:57:14;102610.16;;;9.96;87.69
78562;BME280;68963;52.138;5.446;2023-05-20T03:59:40;102617.78;;;9.99;87.81
78562;BME280;68963;52.138;5.446;2023-05-20T04:02:08;102615.00;;;10.01;88.24
78562;BME280;68963;52.138;5.446;2023-05-20T04:04:35;102614.06;;;10.02;88.11
78562;BME280;68963;52.138;5.446;2023-05-20T04:07:01;102610.44;;;10.03;88.22
78562;BME280;68963;52.138;5.446;2023-05-20T04:09:30;102616.53;;;10.03;87.41
78562;BME280;68963;52.138;5.446;2023-05-20T04:11:56;102607.38;;;10.07;88.17
78562;BME280;68963;52.138;5.446;2023-05-20T04:14:23;102616.53;;;10.13;88.42
78562;BME280;68963;52.138;5.446;2023-05-20T04:16:49;102613.47;;;10.18;88.25
78562;BME280;68963;52.138;5.446;2023-05-20T04:19:17;102617.19;;;10.25;88.45
78562;BME280;68963;52.138;5.446;2023-05-20T04:21:46;102607.91;;;10.30;88.04
78562;BME280;68963;52.138;5.446;2023-05-20T04:24:13;102613.72;;;10.34;88.38
78562;BME280;68963;52.138;5.446;2023-05-20T04:26:40;102613.44;;;10.37;88.20
78562;BME280;68963;52.138;5.446;2023-05-20T04:29:06;102609.56;;;10.41;88.06
78562;BME280;68963;52.138;5.446;2023-05-20T04:31:33;102613.88;;;10.42;87.98
78562;BME280;68963;52.138;5.446;2023-05-20T04:34:00;102615.66;;;10.42;87.90
78562;BME280;68963;52.138;5.446;2023-05-20T04:36:29;102618.00;;;10.45;88.34
78562;BME280;68963;52.138;5.446;2023-05-20T04:38:56;102614.94;;;10.49;88.29
78562;BME280;68963;52.138;5.446;2023-05-20T04:41:22;102618.41;;;10.50;87.76
78562;BME280;68963;52.138;5.446;2023-05-20T04:43:49;102622.72;;;10.51;88.18
78562;BME280;68963;52.138;5.446;2023-05-20T04:46:16;102621.59;;;10.53;88.28
78562;BME280;68963;52.138;5.446;2023-05-20T04:48:42;102624.22;;;10.53;88.04
78562;BME280;68963;52.138;5.446;2023-05-20T04:51:09;102630.03;;;10.57;88.10
78562;BME280;68963;52.138;5.446;2023-05-20T04:53:36;102631.41;;;10.61;88.12
78562;BME280;68963;52.138;5.446;2023-05-20T04:56:03;102626.69;;;10.64;87.93
78562;BME280;68963;52.138;5.446;2023-05-20T04:58:31;102623.34;;;10.62;87.95
78562;BME280;68963;52.138;5.446;2023-05-20T05:00:58;102619.63;;;10.65;88.24
78562;BME280;68963;52.138;5.446;2023-05-20T05:03:26;102622.09;;;10.67;87.71
78562;BME280;68963;52.138;5.446;2023-05-20T05:05:57;102617.38;;;10.70;88.11
78562;BME280;68963;52.138;5.446;2023-05-20T05:08:24;102619.88;;;10.72;88.05
78562;BME280;68963;52.138;5.446;2023-05-20T05:10:52;102612.63;;;10.74;88.16
78562;BME280;68963;52.138;5.446;2023-05-20T05:13:18;102615.81;;;10.77;88.01
78562;BME280;68963;52.138;5.446;2023-05-20T05:15:45;102614.53;;;10.81;87.91
78562;BME280;68963;52.138;5.446;2023-05-20T05:18:12;102615.25;;;10.83;87.99
78562;BME280;68963;52.138;5.446;2023-05-20T05:20:38;102612.16;;;10.88;87.78
78562;BME280;68963;52.138;5.446;2023-05-20T05:23:05;102610.75;;;10.94;87.91
78562;BME280;68963;52.138;5.446;2023-05-20T05:25:32;102611.13;;;10.99;87.67
78562;BME280;68963;52.138;5.446;2023-05-20T05:27:59;102610.41;;;11.06;87.36
78562;BME280;68963;52.138;5.446;2023-05-20T05:30:26;102609.00;;;11.12;87.51
78562;BME280;68963;52.138;5.446;2023-05-20T05:32:52;102611.84;;;11.19;87.05
78562;BME280;68963;52.138;5.446;2023-05-20T05:35:19;102613.06;;;11.24;86.92
78562;BME280;68963;52.138;5.446;2023-05-20T05:37:46;102608.03;;;11.31;86.36
78562;BME280;68963;52.138;5.446;2023-05-20T05:40:13;102600.19;;;11.39;86.85
78562;BME280;68963;52.138;5.446;2023-05-20T05:42:39;102602.91;;;11.47;86.68
78562;BME280;68963;52.138;5.446;2023-05-20T05:45:06;102600.34;;;11.55;86.37
78562;BME280;68963;52.138;5.446;2023-05-20T05:47:33;102602.56;;;11.60;85.92
78562;BME280;68963;52.138;5.446;2023-05-20T05:50:00;102590.25;;;11.69;85.60
78562;BME280;68963;52.138;5.446;2023-05-20T05:52:26;102596.41;;;11.77;85.46
78562;BME280;68963;52.138;5.446;2023-05-20T05:54:53;102602.47;;;11.88;84.82
78562;BME280;68963;52.138;5.446;2023-05-20T05:57:21;102593.78;;;11.95;84.49
78562;BME280;68963;52.138;5.446;2023-05-20T05:59:47;102595.53;;;12.04;84.94
78562;BME280;68963;52.138;5.446;2023-05-20T06:02:14;102597.09;;;12.15;84.62
78562;BME280;68963;52.138;5.446;2023-05-20T06:04:40;102591.69;;;12.25;84.78
78562;BME280;68963;52.138;5.446;2023-05-20T06:07:07;102592.94;;;12.39;84.06
78562;BME280;68963;52.138;5.446;2023-05-20T06:09:34;102595.31;;;12.50;82.70
78562;BME280;68963;52.138;5.446;2023-05-20T06:12:00;102583.94;;;12.57;81.93
78562;BME280;68963;52.138;5.446;2023-05-20T06:14:27;102597.50;;;12.63;81.88
78562;BME280;68963;52.138;5.446;2023-05-20T06:16:54;102591.59;;;12.69;82.56
78562;BME280;68963;52.138;5.446;2023-05-20T06:19:21;102596.78;;;12.78;81.72
78562;BME280;68963;52.138;5.446;2023-05-20T06:21:47;102587.03;;;12.87;81.87
78562;BME280;68963;52.138;5.446;2023-05-20T06:24:14;102586.91;;;12.97;81.03
78562;BME280;68963;52.138;5.446;2023-05-20T06:26:41;102593.06;;;13.05;80.99
78562;BME280;68963;52.138;5.446;2023-05-20T06:29:07;102594.06;;;13.13;79.71
78562;BME280;68963;52.138;5.446;2023-05-20T06:31:34;102587.97;;;13.20;79.28
78562;BME280;68963;52.138;5.446;2023-05-20T06:34:01;102592.78;;;13.25;78.88
78562;BME280;68963;52.138;5.446;2023-05-20T06:36:27;102581.25;;;13.34;78.70
78562;BME280;68963;52.138;5.446;2023-05-20T06:38:56;102588.69;;;13.39;77.77
78562;BME280;68963;52.138;5.446;2023-05-20T06:41:22;102581.44;;;13.49;78.14
78562;BME280;68963;52.138;5.446;2023-05-20T06:43:49;102582.09;;;13.59;76.43
78562;BME280;68963;52.138;5.446;2023-05-20T06:46:18;102583.09;;;13.66;77.50
78562;BME280;68963;52.138;5.446;2023-05-20T06:48:45;102578.94;;;13.72;76.03
78562;BME280;68963;52.138;5.446;2023-05-20T06:51:12;102581.91;;;13.77;75.60
78562;BME280;68963;52.138;5.446;2023-05-20T06:53:39;102575.97;;;13.83;76.51
78562;BME280;68963;52.138;5.446;2023-05-20T06:56:05;102570.00;;;13.89;76.07
78562;BME280;68963;52.138;5.446;2023-05-20T06:58:32;102571.97;;;13.95;74.95
78562;BME280;68963;52.138;5.446;2023-05-20T07:00:59;102576.28;;;14.05;74.48
78562;BME280;68963;52.138;5.446;2023-05-20T07:03:25;102563.69;;;14.15;75.19
78562;BME280;68963;52.138;5.446;2023-05-20T07:05:52;102567.28;;;14.30;74.81
78562;BME280;68963;52.138;5.446;2023-05-20T07:08:19;102565.44;;;14.39;72.81
78562;BME280;68963;52.138;5.446;2023-05-20T07:10:45;102570.88;;;14.45;73.12
78562;BME280;68963;52.138;5.446;2023-05-20T07:13:12;102561.47;;;14.51;72.15
78562;BME280;68963;52.138;5.446;2023-05-20T07:15:39;102562.25;;;14.60;71.61
78562;BME280;68963;52.138;5.446;2023-05-20T07:18:05;102557.91;;;14.67;71.55
78562;BME280;68963;52.138;5.446;2023-05-20T07:20:32;102555.69;;;14.79;72.77
78562;BME280;68963;52.138;5.446;2023-05-20T07:22:59;102558.78;;;14.90;72.84
78562;BME280;68963;52.138;5.446;2023-05-20T07:25:27;102557.75;;;15.00;70.69
78562;BME280;68963;52.138;5.446;2023-05-20T07:27:54;102549.72;;;15.08;71.59
78562;BME280;68963;52.138;5.446;2023-05-20T07:30:21;102543.13;;;15.27;69.85
78562;BME280;68963;52.138;5.446;2023-05-20T07:32:47;102541.91;;;15.37;70.27
78562;BME280;68963;52.138;5.446;2023-05-20T07:35:14;102537.28;;;15.54;68.70
78562;BME280;68963;52.138;5.446;2023-05-20T07:37:41;102546.38;;;15.60;68.74
78562;BME280;68963;52.138;5.446;2023-05-20T07:40:07;102531.03;;;15.70;66.89
78562;BME280;68963;52.138;5.446;2023-05-20T07:42:35;102536.16;;;15.72;67.45
78562;BME280;68963;52.138;5.446;2023-05-20T07:45:01;102541.59;;;15.78;66.43
78562;BME280;68963;52.138;5.446;2023-05-20T07:47:30;102534.00;;;15.90;68.18
78562;BME280;68963;52.138;5.446;2023-05-20T07:49:57;102534.81;;;16.05;66.02
78562;BME280;68963;52.138;5.446;2023-05-20T07:52:24;102524.03;;;16.07;64.98
78562;BME280;68963;52.138;5.446;2023-05-20T07:54:50;102526.31;;;16.10;62.48
78562;BME280;68963;52.138;5.446;2023-05-20T07:57:17;102522.28;;;16.14;62.81
78562;BME280;68963;52.138;5.446;2023-05-20T07:59:43;102518.63;;;16.15;63.42
78562;BME280;68963;52.138;5.446;2023-05-20T08:02:10;102518.34;;;16.25;61.59
78562;BME280;68963;52.138;5.446;2023-05-20T08:04:37;102506.03;;;16.38;63.58
78562;BME280;68963;52.138;5.446;2023-05-20T08:07:04;102514.91;;;16.46;58.68
78562;BME280;68963;52.138;5.446;2023-05-20T08:09:33;102506.13;;;16.45;60.12
78562;BME280;68963;52.138;5.446;2023-05-20T08:11:59;102503.75;;;16.50;61.45
78562;BME280;68963;52.138;5.446;2023-05-20T08:14:26;102499.59;;;16.62;58.83
78562;BME280;68963;52.138;5.446;2023-05-20T08:16:53;102506.91;;;16.75;59.20
78562;BME280;68963;52.138;5.446;2023-05-20T08:19:20;102512.00;;;16.92;59.01
78562;BME280;68963;52.138;5.446;2023-05-20T08:21:47;102501.69;;;17.03;58.51
78562;BME280;68963;52.138;5.446;2023-05-20T08:24:13;102507.53;;;17.13;56.83
78562;BME280;68963;52.138;5.446;2023-05-20T08:26:40;102505.47;;;17.15;56.80
78562;BME280;68963;52.138;5.446;2023-05-20T08:29:07;102509.69;;;17.25;57.32
78562;BME280;68963;52.138;5.446;2023-05-20T08:31:33;102498.78;;;17.20;56.06
78562;BME280;68963;52.138;5.446;2023-05-20T08:34:00;102501.94;;;17.08;52.91
78562;BME280;68963;52.138;5.446;2023-05-20T08:36:27;102503.97;;;17.06;54.82
78562;BME280;68963;52.138;5.446;2023-05-20T08:38:53;102496.06;;;17.13;55.54
78562;BME280;68963;52.138;5.446;2023-05-20T08:41:21;102490.78;;;17.20;52.82
78562;BME280;68963;52.138;5.446;2023-05-20T08:43:49;102496.66;;;17.15;51.89
78562;BME280;68963;52.138;5.446;2023-05-20T08:46:17;102486.91;;;17.01;52.92
78562;BME280;68963;52.138;5.446;2023-05-20T08:48:44;102493.44;;;16.98;54.09
78562;BME280;68963;52.138;5.446;2023-05-20T08:51:11;102491.25;;;17.02;54.94
78562;BME280;68963;52.138;5.446;2023-05-20T08:53:39;102482.22;;;17.03;53.16
78562;BME280;68963;52.138;5.446;2023-05-20T08:56:06;102485.78;;;17.10;53.56
78562;BME280;68963;52.138;5.446;2023-05-20T08:58:33;102474.63;;;17.21;53.16
78562;BME280;68963;52.138;5.446;2023-05-20T09:01:00;102475.72;;;17.33;51.80
78562;BME280;68963;52.138;5.446;2023-05-20T09:03:27;102470.47;;;17.40;51.91
78562;BME280;68963;52.138;5.446;2023-05-20T09:06:05;102479.13;;;17.49;51.34
78562;BME280;68963;52.138;5.446;2023-05-20T09:08:32;102477.97;;;17.58;51.00
78562;BME280;68963;52.138;5.446;2023-05-20T09:11:00;102477.78;;;17.59;52.25
78562;BME280;68963;52.138;5.446;2023-05-20T09:13:29;102476.38;;;17.63;50.86
78562;BME280;68963;52.138;5.446;2023-05-20T09:15:58;102471.78;;;17.51;51.12
78562;BME280;68963;52.138;5.446;2023-05-20T09:18:25;102471.72;;;17.44;50.32
78562;BME280;68963;52.138;5.446;2023-05-20T09:20:52;102473.94;;;17.41;50.30
78562;BME280;68963;52.138;5.446;2023-05-20T09:23:19;102474.44;;;17.51;51.22
78562;BME280;68963;52.138;5.446;2023-05-20T09:25:49;102472.16;;;17.48;50.99
78562;BME280;68963;52.138;5.446;2023-05-20T09:28:23;102460.59;;;17.62;51.90
78562;BME280;68963;52.138;5.446;2023-05-20T09:30:57;102465.06;;;17.83;50.46
78562;BME280;68963;52.138;5.446;2023-05-20T09:33:29;102455.28;;;17.97;48.65
78562;BME280;68963;52.138;5.446;2023-05-20T09:36:02;102461.63;;;17.96;50.56
78562;BME280;68963;52.138;5.446;2023-05-20T09:38:33;102447.56;;;18.08;49.54
78562;BME280;68963;52.138;5.446;2023-05-20T09:41:06;102456.41;;;18.16;49.17
78562;BME280;68963;52.138;5.446;2023-05-20T09:43:35;102452.56;;;18.31;49.43
78562;BME280;68963;52.138;5.446;2023-05-20T09:46:03;102447.66;;;18.35;48.58
78562;BME280;68963;52.138;5.446;2023-05-20T09:48:30;102450.16;;;18.43;48.33
78562;BME280;68963;52.138;5.446;2023-05-20T09:51:00;102446.72;;;18.56;49.84
78562;BME280;68963;52.138;5.446;2023-05-20T09:53:27;102448.81;;;18.74;48.24
78562;BME280;68963;52.138;5.446;2023-05-20T09:55:55;102440.63;;;18.89;49.33
78562;BME280;68963;52.138;5.446;2023-05-20T09:58:22;102439.81;;;18.95;48.07
78562;BME280;68963;52.138;5.446;2023-05-20T10:00:49;102432.81;;;19.07;46.83
78562;BME280;68963;52.138;5.446;2023-05-20T10:03:17;102441.25;;;19.04;47.04
78562;BME280;68963;52.138;5.446;2023-05-20T10:05:46;102434.06;;;19.04;48.60
78562;BME280;68963;52.138;5.446;2023-05-20T10:08:28;102433.03;;;18.86;48.08
78562;BME280;68963;52.138;5.446;2023-05-20T10:17:17;102421.34;;;18.93;47.19
78562;BME280;68963;52.138;5.446;2023-05-20T10:19:46;102411.88;;;19.24;48.75
78562;BME280;68963;52.138;5.446;2023-05-20T10:22:25;102415.53;;;19.49;46.35
78562;BME280;68963;52.138;5.446;2023-05-20T10:25:04;102410.22;;;19.29;45.63
78562;BME280;68963;52.138;5.446;2023-05-20T10:27:46;102416.59;;;18.82;46.27
78562;BME280;68963;52.138;5.446;2023-05-20T10:32:54;102410.38;;;18.68;48.03
78562;BME280;68963;52.138;5.446;2023-05-20T10:35:23;102401.97;;;18.65;48.04
78562;BME280;68963;52.138;5.446;2023-05-20T10:37:53;102398.09;;;18.74;50.03
78562;BME280;68963;52.138;5.446;2023-05-20T10:40:21;102396.88;;;18.90;48.57
78562;BME280;68963;52.138;5.446;2023-05-20T10:42:48;102383.75;;;19.08;49.00
78562;BME280;68963;52.138;5.446;2023-05-20T10:45:26;102379.75;;;19.44;48.27
78562;BME280;68963;52.138;5.446;2023-05-20T10:47:54;102387.53;;;19.72;45.60
78562;BME280;68963;52.138;5.446;2023-05-20T10:50:35;102385.09;;;19.70;44.74
78562;BME280;68963;52.138;5.446;2023-05-20T10:53:06;102388.59;;;19.71;45.67
78562;BME280;68963;52.138;5.446;2023-05-20T10:55:52;102387.06;;;19.88;44.66
78562;BME280;68963;52.138;5.446;2023-05-20T10:58:23;102384.03;;;19.85;45.82
78562;BME280;68963;52.138;5.446;2023-05-20T11:00:52;102385.94;;;20.09;47.57
78562;BME280;68963;52.138;5.446;2023-05-20T11:03:21;102377.09;;;20.47;45.46
78562;BME280;68963;52.138;5.446;2023-05-20T11:05:49;102379.09;;;20.58;44.96
78562;BME280;68963;52.138;5.446;2023-05-20T11:08:16;102363.47;;;20.17;45.93
78562;BME280;68963;52.138;5.446;2023-05-20T11:10:57;102368.16;;;19.83;46.43
78562;BME280;68963;52.138;5.446;2023-05-20T11:13:24;102366.78;;;19.74;46.66
78562;BME280;68963;52.138;5.446;2023-05-20T11:15:51;102361.31;;;20.00;46.16
78562;BME280;68963;52.138;5.446;2023-05-20T11:18:18;102363.41;;;20.30;46.38
78562;BME280;68963;52.138;5.446;2023-05-20T11:20:46;102364.13;;;20.50;45.65
78562;BME280;68963;52.138;5.446;2023-05-20T11:23:13;102358.53;;;20.59;46.13
78562;BME280;68963;52.138;5.446;2023-05-20T11:25:40;102363.03;;;20.83;46.18
78562;BME280;68963;52.138;5.446;2023-05-20T11:28:13;102364.00;;;20.95;45.54
78562;BME280;68963;52.138;5.446;2023-05-20T11:30:42;102357.81;;;21.13;44.83
78562;BME280;68963;52.138;5.446;2023-05-20T11:33:14;102359.88;;;20.93;44.17
78562;BME280;68963;52.138;5.446;2023-05-20T11:35:55;102359.63;;;20.44;43.77
78562;BME280;68963;52.138;5.446;2023-05-20T11:38:22;102353.88;;;20.41;43.95
78562;BME280;68963;52.138;5.446;2023-05-20T11:40:54;102348.81;;;20.58;45.55
78562;BME280;68963;52.138;5.446;2023-05-20T11:43:23;102349.16;;;20.93;43.92
78562;BME280;68963;52.138;5.446;2023-05-20T11:45:55;102354.09;;;20.71;46.25
78562;BME280;68963;52.138;5.446;2023-05-20T11:48:23;102345.34;;;20.82;43.66
78562;BME280;68963;52.138;5.446;2023-05-20T11:50:52;102343.16;;;20.72;42.78
78562;BME280;68963;52.138;5.446;2023-05-20T11:53:25;102338.13;;;20.58;43.98
78562;BME280;68963;52.138;5.446;2023-05-20T11:55:54;102345.19;;;20.45;45.53
78562;BME280;68963;52.138;5.446;2023-05-20T11:59:05;102341.25;;;20.55;43.61
78562;BME280;68963;52.138;5.446;2023-05-20T12:01:16;102335.81;;;20.61;44.85
78562;BME280;68963;52.138;5.446;2023-05-20T12:03:51;102321.28;;;21.01;44.12
78562;BME280;68963;52.138;5.446;2023-05-20T12:06:19;102319.31;;;21.51;43.93
78562;BME280;68963;52.138;5.446;2023-05-20T12:08:50;102317.69;;;21.99;44.87
78562;BME280;68963;52.138;5.446;2023-05-20T12:11:26;102307.66;;;22.36;42.76
78562;BME280;68963;52.138;5.446;2023-05-20T12:14:11;102311.53;;;22.40;43.32
78562;BME280;68963;52.138;5.446;2023-05-20T12:16:38;102320.03;;;22.07;42.23
78562;BME280;68963;52.138;5.446;2023-05-20T12:19:05;102315.59;;;21.34;41.14
78562;BME280;68963;52.138;5.446;2023-05-20T12:21:34;102312.81;;;20.79;45.51
78562;BME280;68963;52.138;5.446;2023-05-20T12:24:01;102318.66;;;20.44;43.74
78562;BME280;68963;52.138;5.446;2023-05-20T12:26:30;102318.00;;;20.17;44.43
78562;BME280;68963;52.138;5.446;2023-05-20T12:29:00;102308.38;;;20.09;44.98
78562;BME280;68963;52.138;5.446;2023-05-20T12:31:28;102308.41;;;20.34;45.84
78562;BME280;68963;52.138;5.446;2023-05-20T12:34:00;102310.44;;;20.70;43.62
78562;BME280;68963;52.138;5.446;2023-05-20T12:36:27;102315.59;;;20.90;44.31
78562;BME280;68963;52.138;5.446;2023-05-20T12:39:14;102318.50;;;20.89;43.84
78562;BME280;68963;52.138;5.446;2023-05-20T12:41:50;102315.03;;;20.63;44.01
78562;BME280;68963;52.138;5.446;2023-05-20T12:44:17;102309.97;;;20.48;44.73
78562;BME280;68963;52.138;5.446;2023-05-20T12:46:44;102316.94;;;20.56;45.19
78562;BME280;68963;52.138;5.446;2023-05-20T12:49:11;102315.22;;;20.87;45.38
78562;BME280;68963;52.138;5.446;2023-05-20T12:51:37;102310.31;;;21.02;45.06
78562;BME280;68963;52.138;5.446;2023-05-20T12:54:04;102300.59;;;21.26;45.54
78562;BME280;68963;52.138;5.446;2023-05-20T12:56:31;102301.69;;;21.43;44.74
78562;BME280;68963;52.138;5.446;2023-05-20T12:58:58;102298.84;;;21.38;43.80
78562;BME280;68963;52.138;5.446;2023-05-20T13:01:25;102296.59;;;21.35;44.88
78562;BME280;68963;52.138;5.446;2023-05-20T13:04:01;102297.41;;;21.17;42.06